Terminal Aerodrome Forecast
Issued by NWS

Home | Current Version | Previous Version | Text Only | Print | Product List | Glossary Off
Versions: 1 2 3 4 5 6 7 8 9 10 11 12 13 14 15 16 17 18 19 20

000
FTUS43 KMPX 181400 AAA
TAFAXN
TAF AMD
KAXN 181435Z 1815/1912 25008KT P6SM FEW009 SCT015 BKN110
     FM181800 27010KT P6SM VCSH SCT005 BKN050
      TEMPO 1818/1822 3SM TSRA SCT005CB BKN025
     FM182200 27008KT P6SM -SHRA BKN030
     FM190000 30006KT P6SM SCT040 BKN120=

USA.gov is the U.S. government's official web portal to all federal, state and local government web resources and services.